createdAt,value
2023-09-20T00:00:34.141Z,90.45
2023-09-20T00:03:00.573Z,90.82
2023-09-20T00:05:26.959Z,89.66
2023-09-20T00:07:53.371Z,90.09
2023-09-20T00:10:19.774Z,90.75
2023-09-20T00:12:46.144Z,90.44
2023-09-20T00:15:12.463Z,90.33
2023-09-20T00:17:38.963Z,90.03
2023-09-20T00:20:05.354Z,90.24
2023-09-20T00:22:31.679Z,89.09
2023-09-20T00:24:58.078Z,89.04
2023-09-20T00:27:24.528Z,89.51
2023-09-20T00:29:50.832Z,88.24
2023-09-20T00:32:17.277Z,89.42
2023-09-20T00:34:43.615Z,91.47
2023-09-20T00:37:09.944Z,89.87
2023-09-20T00:39:36.356Z,85.81
2023-09-20T00:42:02.815Z,85.55
2023-09-20T00:44:29.162Z,86.69
2023-09-20T00:46:55.586Z,86.72
2023-09-20T00:49:22.024Z,86.27
2023-09-20T00:51:48.501Z,86.82
2023-09-20T00:54:14.877Z,85.64
2023-09-20T00:56:41.284Z,85.26
2023-09-20T00:59:07.752Z,86.00
2023-09-20T01:01:34.213Z,88.13
2023-09-20T01:04:00.776Z,89.63
2023-09-20T01:06:27.213Z,87.20
2023-09-20T01:08:53.578Z,89.34
2023-09-20T01:11:20.066Z,88.81
2023-09-20T01:13:46.417Z,88.71
2023-09-20T01:16:12.858Z,90.44
2023-09-20T01:18:39.402Z,88.35
2023-09-20T01:21:05.912Z,88.88
2023-09-20T01:23:32.360Z,88.12
2023-09-20T01:25:58.831Z,88.18
2023-09-20T01:28:25.142Z,89.06
2023-09-20T01:30:51.634Z,90.21
2023-09-20T01:33:18.213Z,88.95
2023-09-20T01:35:44.510Z,88.67
2023-09-20T01:38:10.909Z,90.64
2023-09-20T01:40:37.225Z,90.33
2023-09-20T01:43:03.535Z,90.77
2023-09-20T01:45:29.897Z,90.05
2023-09-20T01:47:56.396Z,89.40
2023-09-20T01:50:22.828Z,89.47
2023-09-20T01:52:49.231Z,89.28
2023-09-20T01:55:15.675Z,88.53
2023-09-20T01:57:41.966Z,88.75
2023-09-20T02:00:08.309Z,88.95
2023-09-20T02:02:34.826Z,89.15
2023-09-20T02:05:01.202Z,89.58
2023-09-20T02:07:27.565Z,89.88
2023-09-20T02:09:53.864Z,90.10
2023-09-20T02:12:20.154Z,91.34
2023-09-20T02:14:46.494Z,92.00
2023-09-20T02:17:12.904Z,89.94
2023-09-20T02:19:40.482Z,88.47
2023-09-20T02:22:07.044Z,88.84
2023-09-20T02:24:33.355Z,90.36
2023-09-20T02:26:59.664Z,91.41
2023-09-20T02:29:26.020Z,90.33
2023-09-20T02:31:52.493Z,89.34
2023-09-20T02:34:18.793Z,90.29
2023-09-20T02:36:45.145Z,90.80
2023-09-20T02:39:11.585Z,90.44
2023-09-20T02:41:37.913Z,90.66
2023-09-20T02:44:04.385Z,90.00
2023-09-20T02:46:30.888Z,90.10
2023-09-20T02:48:57.316Z,89.63
2023-09-20T02:51:23.861Z,89.97
2023-09-20T02:53:50.265Z,90.39
2023-09-20T02:56:16.614Z,90.81
2023-09-20T02:58:43.326Z,91.43
2023-09-20T03:01:09.759Z,91.62
2023-09-20T03:03:36.157Z,90.74
2023-09-20T03:06:02.548Z,92.48
2023-09-20T03:08:28.942Z,92.80
2023-09-20T03:10:55.283Z,92.82
2023-09-20T03:13:21.661Z,92.72
2023-09-20T03:15:48.220Z,93.08
2023-09-20T03:18:14.644Z,92.09
2023-09-20T03:20:41.795Z,92.05
2023-09-20T03:23:08.554Z,90.85
2023-09-20T03:25:34.889Z,91.80
2023-09-20T03:28:01.228Z,92.24
2023-09-20T03:30:27.662Z,92.98
2023-09-20T03:32:54.057Z,92.79
2023-09-20T03:35:20.518Z,92.04
2023-09-20T03:37:46.887Z,92.24
2023-09-20T03:40:13.205Z,92.24
2023-09-20T03:42:39.521Z,92.42
2023-09-20T03:45:05.850Z,90.10
2023-09-20T03:47:32.226Z,90.29
2023-09-20T03:49:58.609Z,90.87
2023-09-20T03:52:25.043Z,91.16
2023-09-20T03:54:51.347Z,89.10
2023-09-20T03:57:17.677Z,89.39
2023-09-20T03:59:43.985Z,89.97
2023-09-20T04:02:10.305Z,89.97
2023-09-20T04:04:36.752Z,88.15
2023-09-20T04:07:03.187Z,88.50
2023-09-20T04:09:29.461Z,91.16
2023-09-20T04:11:55.888Z,90.74
2023-09-20T04:14:22.280Z,90.08
2023-09-20T04:16:48.657Z,88.24
2023-09-20T04:19:15.030Z,89.07
2023-09-20T04:21:41.466Z,90.07
2023-09-20T04:24:07.777Z,90.92
2023-09-20T04:26:34.163Z,92.42
2023-09-20T04:29:00.535Z,95.03
2023-09-20T04:31:26.897Z,93.56
2023-09-20T04:33:53.248Z,90.75
2023-09-20T04:36:19.713Z,89.77
2023-09-20T04:38:46.100Z,90.31
2023-09-20T04:41:12.521Z,92.41
2023-09-20T04:43:38.850Z,91.97
2023-09-20T04:46:05.358Z,90.99
2023-09-20T04:48:31.878Z,91.99
2023-09-20T04:50:58.295Z,92.89
2023-09-20T04:53:24.725Z,93.22
2023-09-20T04:55:51.198Z,92.67
2023-09-20T04:58:17.630Z,92.50
2023-09-20T05:00:43.964Z,91.40
2023-09-20T05:03:10.408Z,91.38
2023-09-20T05:05:36.883Z,91.97
2023-09-20T05:08:03.293Z,89.48
2023-09-20T05:10:29.662Z,89.50
2023-09-20T05:12:56.119Z,90.24
2023-09-20T05:15:22.429Z,90.22
2023-09-20T05:17:48.842Z,88.95
2023-09-20T05:20:15.370Z,89.36
2023-09-20T05:22:41.719Z,90.21
2023-09-20T05:25:08.053Z,90.40
2023-09-20T05:27:34.385Z,88.91
2023-09-20T05:30:00.714Z,86.50
2023-09-20T05:32:27.137Z,86.73
2023-09-20T05:34:53.622Z,86.54
2023-09-20T05:37:19.968Z,89.21
2023-09-20T05:39:46.338Z,89.55
2023-09-20T05:42:12.777Z,89.50
2023-09-20T05:44:39.101Z,90.10
2023-09-20T05:47:05.508Z,89.81
2023-09-20T05:49:32.013Z,89.20
2023-09-20T05:51:58.297Z,88.40
2023-09-20T05:54:24.697Z,88.39
2023-09-20T05:56:52.905Z,91.38
2023-09-20T05:59:19.276Z,91.69
2023-09-20T06:01:45.690Z,88.73
2023-09-20T06:04:12.107Z,88.07
2023-09-20T06:06:38.435Z,87.79
2023-09-20T06:09:04.768Z,89.22
2023-09-20T06:11:31.141Z,89.30
2023-09-20T06:13:57.514Z,90.37
2023-09-20T06:16:23.904Z,91.19
2023-09-20T06:19:03.273Z,89.81
2023-09-20T06:21:32.111Z,90.06
2023-09-20T06:23:58.579Z,91.27
2023-09-20T06:26:24.919Z,92.17
2023-09-20T06:28:51.311Z,92.92
2023-09-20T06:31:17.747Z,92.78
2023-09-20T06:33:44.049Z,92.08
2023-09-20T06:36:10.395Z,91.24
2023-09-20T06:38:36.783Z,90.45
2023-09-20T06:41:03.152Z,91.94
2023-09-20T06:43:29.570Z,87.32
2023-09-20T06:45:55.958Z,88.58
2023-09-20T06:48:23.519Z,87.70
2023-09-20T06:50:51.958Z,86.64
2023-09-20T06:53:18.341Z,87.91
2023-09-20T06:55:44.727Z,87.83
2023-09-20T06:58:19.660Z,85.88
2023-09-20T07:00:47.317Z,86.11
2023-09-20T07:03:13.775Z,83.13
2023-09-20T07:05:40.149Z,82.18
2023-09-20T07:08:06.629Z,81.61
2023-09-20T07:10:35.513Z,81.31
2023-09-20T07:13:01.853Z,79.95
2023-09-20T07:15:28.203Z,78.38
2023-09-20T07:17:54.716Z,76.87
2023-09-20T07:20:21.179Z,78.15
2023-09-20T07:22:47.657Z,77.14
2023-09-20T07:25:14.127Z,77.84
2023-09-20T07:27:40.459Z,76.73
2023-09-20T07:30:06.893Z,75.95
2023-09-20T07:32:33.403Z,74.49
2023-09-20T07:34:59.906Z,75.25
2023-09-20T07:37:26.578Z,73.54
2023-09-20T07:39:52.941Z,71.01
2023-09-20T07:42:19.276Z,70.75
2023-09-20T07:44:45.711Z,69.85
2023-09-20T07:47:12.196Z,68.14
2023-09-20T07:49:38.549Z,69.22
2023-09-20T07:52:05.293Z,69.16
2023-09-20T07:54:31.651Z,67.66
2023-09-20T07:56:58.230Z,67.33
2023-09-20T07:59:24.885Z,64.76
2023-09-20T08:01:51.494Z,66.25
2023-09-20T08:04:17.878Z,69.94
2023-09-20T08:06:44.499Z,66.79
2023-09-20T08:09:12.494Z,62.24
2023-09-20T08:11:38.848Z,62.91
2023-09-20T08:14:05.266Z,61.91
2023-09-20T08:16:46.902Z,61.42
2023-09-20T08:19:18.126Z,60.46
2023-09-20T08:21:44.506Z,59.46
2023-09-20T08:24:11.038Z,58.30
2023-09-20T08:26:37.396Z,58.39
2023-09-20T08:29:03.830Z,61.78
2023-09-20T08:31:30.365Z,60.31
2023-09-20T08:33:56.876Z,58.96
2023-09-20T08:36:23.244Z,57.33
2023-09-20T08:38:49.608Z,57.16
2023-09-20T08:41:16.022Z,57.94
2023-09-20T08:43:42.397Z,58.43
2023-09-20T08:46:08.802Z,58.86
2023-09-20T08:48:35.217Z,59.00
2023-09-20T08:51:01.688Z,58.12
2023-09-20T08:53:28.061Z,57.81
2023-09-20T08:55:55.761Z,59.88
2023-09-20T08:58:22.199Z,62.62
2023-09-20T09:00:48.524Z,60.78
2023-09-20T09:03:15.103Z,58.13
2023-09-20T09:05:41.993Z,57.96
2023-09-20T09:08:08.391Z,58.45
2023-09-20T09:10:34.768Z,60.64
2023-09-20T09:13:01.256Z,59.82
2023-09-20T09:15:27.564Z,55.24
2023-09-20T09:17:54.056Z,54.94
2023-09-20T09:20:20.929Z,54.35
2023-09-20T09:22:47.591Z,55.28
2023-09-20T09:25:14.050Z,58.21
2023-09-20T09:27:40.438Z,59.63
2023-09-20T09:30:06.792Z,56.59
2023-09-20T09:32:33.456Z,55.81
2023-09-20T09:34:59.930Z,57.94
2023-09-20T09:37:26.293Z,58.29
2023-09-20T09:39:52.750Z,58.47
2023-09-20T09:42:19.126Z,55.79
2023-09-20T09:44:45.491Z,56.51
2023-09-20T09:47:11.938Z,55.50
2023-09-20T09:49:45.834Z,56.07
2023-09-20T09:52:12.201Z,55.15
2023-09-20T09:54:38.569Z,55.04
2023-09-20T09:57:04.914Z,56.19
2023-09-20T09:59:31.296Z,56.61
2023-09-20T10:01:57.683Z,57.61
2023-09-20T10:04:24.053Z,56.52
2023-09-20T10:06:50.470Z,56.58
2023-09-20T10:09:16.856Z,56.24
2023-09-20T10:11:43.200Z,57.11
2023-09-20T10:14:09.693Z,56.13
2023-09-20T10:16:36.105Z,56.79
2023-09-20T10:19:02.667Z,57.81
2023-09-20T10:21:29.044Z,58.54
2023-09-20T10:23:55.449Z,57.95
2023-09-20T10:26:21.789Z,54.73
2023-09-20T10:28:48.316Z,54.31
2023-09-20T10:31:14.676Z,54.22
2023-09-20T10:33:41.041Z,53.52
2023-09-20T10:36:07.481Z,51.64
2023-09-20T10:38:33.909Z,52.42
2023-09-20T10:41:00.267Z,51.45
2023-09-20T10:43:26.627Z,51.93
2023-09-20T10:45:53.043Z,51.08
2023-09-20T10:48:19.486Z,52.22
2023-09-20T10:50:46.083Z,52.59
2023-09-20T10:53:12.633Z,51.93
2023-09-20T10:55:39.018Z,52.13
2023-09-20T10:58:05.349Z,53.27
2023-09-20T11:00:32.008Z,51.10
2023-09-20T11:02:58.921Z,50.57
2023-09-20T11:05:25.578Z,50.81
2023-09-20T11:07:52.057Z,50.48
2023-09-20T11:10:18.405Z,49.41
2023-09-20T11:12:45.266Z,50.93
2023-09-20T11:15:11.906Z,51.37
2023-09-20T11:17:38.481Z,52.61
2023-09-20T11:20:04.941Z,54.85
2023-09-20T11:22:31.315Z,55.56
2023-09-20T11:24:57.621Z,55.84
2023-09-20T11:27:23.970Z,55.09
2023-09-20T11:29:50.591Z,56.45
2023-09-20T11:32:17.063Z,52.70
2023-09-20T11:34:43.440Z,51.69
2023-09-20T11:37:09.818Z,50.93
2023-09-20T11:39:36.132Z,52.76
2023-09-20T11:42:02.486Z,51.53
2023-09-20T11:44:28.901Z,53.50
2023-09-20T11:46:57.262Z,50.42
2023-09-20T11:49:25.365Z,52.78
2023-09-20T11:51:51.701Z,54.41
2023-09-20T11:54:18.025Z,51.19
2023-09-20T11:56:44.567Z,51.16
2023-09-20T11:59:11.403Z,50.71
2023-09-20T12:01:37.704Z,51.76
2023-09-20T12:04:04.113Z,50.98
2023-09-20T12:06:30.541Z,50.70
2023-09-20T12:08:56.875Z,51.19
2023-09-20T12:11:23.247Z,51.23
2023-09-20T12:13:49.594Z,50.45
2023-09-20T12:16:15.974Z,51.92
2023-09-20T12:18:42.705Z,53.74
2023-09-20T12:21:09.421Z,51.29
2023-09-20T12:23:35.761Z,49.96
2023-09-20T12:26:02.193Z,49.65
2023-09-20T12:28:28.545Z,49.71
2023-09-20T12:30:54.830Z,50.48
2023-09-20T12:33:21.412Z,50.74
2023-09-20T12:35:47.836Z,52.47
2023-09-20T12:38:14.148Z,54.33
2023-09-20T12:40:40.475Z,53.95
2023-09-20T12:43:06.821Z,54.23
2023-09-20T12:45:33.101Z,53.58
2023-09-20T12:47:59.855Z,54.49
2023-09-20T12:50:26.344Z,54.32
2023-09-20T12:52:52.645Z,52.60
2023-09-20T12:55:18.986Z,51.94
2023-09-20T12:57:48.311Z,52.42
2023-09-20T13:00:23.009Z,51.27
2023-09-20T13:02:56.772Z,50.38
2023-09-20T13:05:23.240Z,49.76
2023-09-20T13:07:49.603Z,50.75
2023-09-20T13:10:16.109Z,49.27
2023-09-20T13:12:42.429Z,49.62
2023-09-20T13:15:08.764Z,48.63
2023-09-20T13:17:35.278Z,49.78
2023-09-20T13:20:01.604Z,51.28
2023-09-20T13:22:27.974Z,52.27
2023-09-20T13:24:54.493Z,52.08
2023-09-20T13:27:20.847Z,52.79
2023-09-20T13:29:47.164Z,52.40
2023-09-20T13:32:13.884Z,52.53
2023-09-20T13:34:40.220Z,53.36
2023-09-20T13:37:06.556Z,54.29
2023-09-20T13:39:32.968Z,54.43
2023-09-20T13:41:59.527Z,54.87
2023-09-20T13:44:25.877Z,55.00
2023-09-20T13:46:52.289Z,55.92
2023-09-20T13:49:18.769Z,57.00
2023-09-20T13:51:45.230Z,55.45
2023-09-20T13:54:11.742Z,53.88
2023-09-20T13:56:38.076Z,53.06
2023-09-20T13:59:04.433Z,52.48
2023-09-20T14:01:30.939Z,54.50
2023-09-20T14:03:57.291Z,55.85
2023-09-20T14:06:23.627Z,54.10
2023-09-20T14:08:50.111Z,53.50
2023-09-20T14:11:16.573Z,54.74
2023-09-20T14:13:43.108Z,53.67
2023-09-20T14:16:09.802Z,54.32
2023-09-20T14:18:36.304Z,54.36
2023-09-20T14:21:02.657Z,54.34
2023-09-20T14:23:29.059Z,53.59
2023-09-20T14:25:55.395Z,54.83
2023-09-20T14:28:21.668Z,52.66
2023-09-20T14:30:48.089Z,53.19
2023-09-20T14:33:14.540Z,52.13
2023-09-20T14:35:42.310Z,53.12
2023-09-20T14:38:09.218Z,52.94
2023-09-20T14:40:35.846Z,53.24
2023-09-20T14:43:02.451Z,53.93
2023-09-20T14:45:29.005Z,54.45
2023-09-20T14:47:55.429Z,53.92
2023-09-20T14:50:21.933Z,53.82
2023-09-20T14:52:48.427Z,54.81
2023-09-20T14:55:14.755Z,56.28
2023-09-20T14:57:41.054Z,54.31
2023-09-20T15:00:07.449Z,54.61
2023-09-20T15:02:33.783Z,54.58
2023-09-20T15:05:00.164Z,55.02
2023-09-20T15:07:26.667Z,53.06
2023-09-20T15:09:52.937Z,51.56
2023-09-20T15:12:19.277Z,51.55
2023-09-20T15:14:45.916Z,52.64
2023-09-20T15:17:12.218Z,51.08
2023-09-20T15:19:38.491Z,51.58
2023-09-20T15:22:06.512Z,50.49
2023-09-20T15:24:34.337Z,50.10
2023-09-20T15:27:00.678Z,50.34
2023-09-20T15:29:27.194Z,51.02
2023-09-20T15:31:53.588Z,51.92
2023-09-20T15:34:19.961Z,52.28
2023-09-20T15:36:46.400Z,54.26
2023-09-20T15:39:12.703Z,54.87
2023-09-20T15:41:39.035Z,51.99
2023-09-20T15:44:05.504Z,51.85
2023-09-20T15:46:31.872Z,52.68
2023-09-20T15:48:59.705Z,52.92
2023-09-20T15:51:26.120Z,52.62
2023-09-20T15:53:52.403Z,53.58
2023-09-20T15:56:18.762Z,53.32
2023-09-20T15:58:45.334Z,53.95
2023-09-20T16:01:11.683Z,54.53
2023-09-20T16:03:38.162Z,55.14
2023-09-20T16:06:04.858Z,55.97
2023-09-20T16:08:31.167Z,55.88
2023-09-20T16:10:57.500Z,56.48
2023-09-20T16:13:23.907Z,57.12
2023-09-20T16:15:50.254Z,56.49
2023-09-20T16:18:16.665Z,57.31
2023-09-20T16:20:43.341Z,57.42
2023-09-20T16:23:09.682Z,58.21
2023-09-20T16:25:35.969Z,59.17
2023-09-20T16:28:02.398Z,59.76
2023-09-20T16:30:28.716Z,59.11
2023-09-20T16:32:55.075Z,59.07
2023-09-20T16:35:21.501Z,60.09
2023-09-20T16:37:47.808Z,60.55
2023-09-20T16:40:14.093Z,60.81
2023-09-20T16:42:40.515Z,60.41
2023-09-20T16:45:06.791Z,61.01
2023-09-20T16:47:33.273Z,59.99
2023-09-20T16:49:59.781Z,59.79
2023-09-20T16:52:26.043Z,61.30
2023-09-20T16:54:52.408Z,61.36
2023-09-20T16:57:18.862Z,61.73
2023-09-20T16:59:45.153Z,63.56
2023-09-20T17:02:11.451Z,64.13
2023-09-20T17:04:37.919Z,65.04
2023-09-20T17:07:04.295Z,65.45
2023-09-20T17:09:30.641Z,66.42
2023-09-20T17:11:57.012Z,66.72
2023-09-20T17:14:23.308Z,67.01
2023-09-20T17:16:49.624Z,66.52
2023-09-20T17:19:16.161Z,66.90
2023-09-20T17:21:42.477Z,67.18
2023-09-20T17:24:08.788Z,68.67
2023-09-20T17:26:35.282Z,68.81
2023-09-20T17:29:01.588Z,68.79
2023-09-20T17:31:28.020Z,69.01
2023-09-20T17:33:54.662Z,69.61
2023-09-20T17:36:20.988Z,69.43
2023-09-20T17:38:47.326Z,69.80
2023-09-20T17:41:13.733Z,69.21
2023-09-20T17:43:40.222Z,69.69
2023-09-20T17:46:06.649Z,68.57
2023-09-20T17:48:33.253Z,69.55
2023-09-20T17:50:59.597Z,69.65
2023-09-20T17:53:25.965Z,69.83
2023-09-20T17:55:54.278Z,69.90
2023-09-20T17:58:21.210Z,69.29
2023-09-20T18:00:47.527Z,69.44
2023-09-20T18:03:15.495Z,69.23
2023-09-20T18:05:42.283Z,67.98
2023-09-20T18:08:08.579Z,68.76
2023-09-20T18:10:35.011Z,68.92
2023-09-20T18:13:01.282Z,69.18
2023-09-20T18:15:27.552Z,69.36
2023-09-20T18:17:54.070Z,68.92
2023-09-20T18:20:20.438Z,69.38
2023-09-20T18:22:46.750Z,70.07
2023-09-20T18:25:13.197Z,70.22
2023-09-20T18:27:39.489Z,70.47
2023-09-20T18:30:05.818Z,71.40
2023-09-20T18:32:32.477Z,71.84
2023-09-20T18:34:58.908Z,71.07
2023-09-20T18:37:25.182Z,70.91
2023-09-20T18:39:51.640Z,70.64
2023-09-20T18:42:18.029Z,70.11
2023-09-20T18:44:44.434Z,70.20
2023-09-20T18:47:10.809Z,70.02
2023-09-20T18:49:38.954Z,69.10
2023-09-20T18:52:05.249Z,69.01
2023-09-20T18:54:31.711Z,69.21
2023-09-20T18:56:58.061Z,68.66
2023-09-20T18:59:24.444Z,68.45
2023-09-20T19:01:51.015Z,68.03
2023-09-20T19:04:17.650Z,68.62
2023-09-20T19:06:44.066Z,68.52
2023-09-20T19:09:10.470Z,68.10
2023-09-20T19:11:36.815Z,67.95
2023-09-20T19:14:03.108Z,67.33
2023-09-20T19:16:29.550Z,67.42
2023-09-20T19:18:55.956Z,67.78
2023-09-20T19:21:22.271Z,68.23
2023-09-20T19:23:48.673Z,68.65
2023-09-20T19:26:14.960Z,68.64
2023-09-20T19:28:41.238Z,69.05
2023-09-20T19:31:07.622Z,68.97
2023-09-20T19:33:34.051Z,69.14
2023-09-20T19:36:00.476Z,68.43
2023-09-20T19:38:27.119Z,67.37
2023-09-20T19:40:53.493Z,67.26
2023-09-20T19:43:19.790Z,67.26
2023-09-20T19:45:46.232Z,67.55
2023-09-20T19:48:12.656Z,68.29
2023-09-20T19:50:39.107Z,69.94
2023-09-20T19:53:05.793Z,67.71
2023-09-20T19:55:32.107Z,67.18
2023-09-20T19:57:58.403Z,67.69
2023-09-20T20:00:24.804Z,68.08
2023-09-20T20:02:51.263Z,68.74
2023-09-20T20:05:17.619Z,68.28
2023-09-20T20:07:44.171Z,67.69
2023-09-20T20:10:10.481Z,67.47
2023-09-20T20:12:36.752Z,67.26
2023-09-20T20:15:03.234Z,67.17
2023-09-20T20:17:29.607Z,67.54
2023-09-20T20:19:55.917Z,68.12
2023-09-20T20:22:22.319Z,68.17
2023-09-20T20:24:48.602Z,68.37
2023-09-20T20:27:14.907Z,67.44
2023-09-20T20:29:41.432Z,67.08
2023-09-20T20:32:07.727Z,67.05
2023-09-20T20:34:34.055Z,67.12
2023-09-20T20:37:00.551Z,67.25
2023-09-20T20:39:26.885Z,67.08
2023-09-20T20:41:53.184Z,66.50
2023-09-20T20:44:19.644Z,66.89
2023-09-20T20:46:46.331Z,67.27
2023-09-20T20:49:12.612Z,67.54
2023-09-20T20:51:39.020Z,67.97
2023-09-20T20:54:05.376Z,67.29
2023-09-20T20:56:31.695Z,67.36
2023-09-20T20:58:58.202Z,67.37
2023-09-20T21:01:24.561Z,66.92
2023-09-20T21:03:50.951Z,67.38
2023-09-20T21:06:17.516Z,68.16
2023-09-20T21:08:44.007Z,67.86
2023-09-20T21:11:10.566Z,68.48
2023-09-20T21:13:37.061Z,68.58
2023-09-20T21:16:03.429Z,67.96
2023-09-20T21:18:29.899Z,68.38
2023-09-20T21:20:56.488Z,68.57
2023-09-20T21:23:22.900Z,68.73
2023-09-20T21:25:49.202Z,69.52
2023-09-20T21:28:15.589Z,69.63
2023-09-20T21:30:41.919Z,69.63
2023-09-20T21:33:08.259Z,69.50
2023-09-20T21:35:34.811Z,68.92
2023-09-20T21:38:01.118Z,69.35
2023-09-20T21:40:27.404Z,70.28
2023-09-20T21:42:53.850Z,70.16
2023-09-20T21:45:20.197Z,70.02
2023-09-20T21:47:46.534Z,69.27
2023-09-20T21:50:13.019Z,69.53
2023-09-20T21:52:39.322Z,70.01
2023-09-20T21:55:05.653Z,70.67
2023-09-20T21:57:32.017Z,70.71
2023-09-20T21:59:58.326Z,69.97
2023-09-20T22:02:24.721Z,69.91
2023-09-20T22:04:51.197Z,70.35
2023-09-20T22:07:17.597Z,70.42
2023-09-20T22:09:43.907Z,70.85
2023-09-20T22:12:10.417Z,70.55
2023-09-20T22:14:36.724Z,71.52
2023-09-20T22:17:03.091Z,71.94
2023-09-20T22:19:29.492Z,72.59
2023-09-20T22:21:55.795Z,72.73
2023-09-20T22:24:22.098Z,72.63
2023-09-20T22:26:48.546Z,71.52
2023-09-20T22:29:14.961Z,71.06
2023-09-20T22:31:41.262Z,70.82
2023-09-20T22:34:07.663Z,70.44
2023-09-20T22:36:33.982Z,70.12
2023-09-20T22:39:00.346Z,70.31
2023-09-20T22:41:26.770Z,70.29
2023-09-20T22:43:53.076Z,69.81
2023-09-20T22:46:19.436Z,70.00
2023-09-20T22:48:46.278Z,70.29
2023-09-20T22:51:12.855Z,69.78
2023-09-20T22:53:39.269Z,70.20
2023-09-20T22:56:05.611Z,71.65
2023-09-20T22:58:31.884Z,71.10
2023-09-20T23:00:58.443Z,71.00
2023-09-20T23:03:24.835Z,70.53
2023-09-20T23:05:51.622Z,70.58
2023-09-20T23:08:18.134Z,70.47
2023-09-20T23:10:44.475Z,71.04
2023-09-20T23:13:10.792Z,70.44
2023-09-20T23:15:37.120Z,70.35
2023-09-20T23:18:03.579Z,70.63
2023-09-20T23:20:30.000Z,70.70
2023-09-20T23:22:56.343Z,71.27
2023-09-20T23:25:22.667Z,71.51
2023-09-20T23:27:48.989Z,71.99
2023-09-20T23:30:15.320Z,71.79
2023-09-20T23:32:41.776Z,71.61
2023-09-20T23:35:08.164Z,71.73
2023-09-20T23:37:34.481Z,71.29
2023-09-20T23:40:00.831Z,72.25
2023-09-20T23:42:27.667Z,72.60
2023-09-20T23:44:53.990Z,72.30
2023-09-20T23:47:20.327Z,72.50
2023-09-20T23:49:46.667Z,72.41
2023-09-20T23:52:12.962Z,72.57
2023-09-20T23:54:39.271Z,73.64
2023-09-20T23:57:05.604Z,73.26
2023-09-20T23:59:31.988Z,72.41
